RUK9609 EGAA-LFOB
Flight info
| Callsign | RUK9609 |
|---|---|
| Flight time | N/A |
| Altitude | 25000 |
| Route | BELZU DCT DEGOS DCT TUGSI DCT DIRUM DCT BANBA DCT DIQSE DCT ICOSA DCT RUHUN DCT YORQI DCT UNZIB DCT NUCHU L18 MID Y803 SFD M605 PETAX J150 VELOL |
| Aircraft | B738/M-SDE2E3FGHIRWXY/LB1 |
Departure
| Time | N/A |
|---|---|
| Airport | Belfast International Airport (EGAA) |
Arrival
| Time | 2026-04-27 17:00 |
|---|---|
| Airport | Beauvais-Tillé airport (LFOB) |
| Time | Latitude | Longitude | Altitude | Speed | Heading |
|---|---|---|---|---|---|
| 2026-04-27 16:37 | 50.14780 | 0.91505 | 25024 ft | 379 kts | 133° |
| 2026-04-27 16:38 | 50.13221 | 0.94371 | 24661 ft | 380 kts | 133° |
| 2026-04-27 16:38 | 50.11508 | 0.97500 | 24273 ft | 380 kts | 133° |
| 2026-04-27 16:38 | 50.09784 | 1.00614 | 23947 ft | 378 kts | 134° |
| 2026-04-27 16:38 | 50.08061 | 1.03699 | 23605 ft | 376 kts | 134° |
| 2026-04-27 16:39 | 50.06340 | 1.06761 | 23268 ft | 374 kts | 134° |
| 2026-04-27 16:39 | 50.04635 | 1.09783 | 22935 ft | 371 kts | 134° |
| 2026-04-27 16:39 | 50.02936 | 1.12785 | 22595 ft | 368 kts | 134° |
| 2026-04-27 16:39 | 50.01250 | 1.15762 | 22261 ft | 366 kts | 134° |
| 2026-04-27 16:40 | 49.99570 | 1.18723 | 21935 ft | 364 kts | 134° |
| 2026-04-27 16:40 | 49.97901 | 1.21665 | 21602 ft | 362 kts | 134° |
| 2026-04-27 16:40 | 49.96242 | 1.24583 | 21282 ft | 359 kts | 134° |
| 2026-04-27 16:40 | 49.94598 | 1.27470 | 21032 ft | 355 kts | 134° |
| 2026-04-27 16:41 | 49.92775 | 1.29970 | 20689 ft | 348 kts | 151° |
| 2026-04-27 16:41 | 49.90689 | 1.31857 | 20369 ft | 345 kts | 154° |
| 2026-04-27 16:41 | 49.88612 | 1.33703 | 20056 ft | 344 kts | 153° |
| 2026-04-27 16:41 | 49.86551 | 1.35585 | 19749 ft | 343 kts | 152° |
| 2026-04-27 16:42 | 49.84509 | 1.37480 | 19483 ft | 341 kts | 152° |
| 2026-04-27 16:42 | 49.82485 | 1.39372 | 19194 ft | 339 kts | 152° |
| 2026-04-27 16:42 | 49.80471 | 1.41265 | 18892 ft | 338 kts | 152° |
| 2026-04-27 16:42 | 49.78468 | 1.43147 | 18612 ft | 336 kts | 152° |
| 2026-04-27 16:43 | 49.76476 | 1.45014 | 18375 ft | 332 kts | 152° |
| 2026-04-27 16:43 | 49.74514 | 1.46851 | 18122 ft | 328 kts | 152° |
| 2026-04-27 16:43 | 49.72569 | 1.48669 | 17839 ft | 325 kts | 152° |
| 2026-04-27 16:43 | 49.70647 | 1.50466 | 17572 ft | 322 kts | 152° |
| 2026-04-27 16:44 | 49.68734 | 1.52265 | 17234 ft | 321 kts | 152° |
| 2026-04-27 16:44 | 49.66830 | 1.54058 | 16932 ft | 319 kts | 152° |
| 2026-04-27 16:44 | 49.64940 | 1.55836 | 16645 ft | 317 kts | 152° |
| 2026-04-27 16:44 | 49.63077 | 1.57586 | 16527 ft | 309 kts | 152° |
| 2026-04-27 16:45 | 49.61246 | 1.59256 | 16357 ft | 302 kts | 158° |
| 2026-04-27 16:45 | 49.59262 | 1.60016 | 16102 ft | 290 kts | 184° |
| 2026-04-27 16:45 | 49.57322 | 1.59476 | 15804 ft | 281 kts | 206° |
| 2026-04-27 16:45 | 49.55694 | 1.57904 | 15481 ft | 275 kts | 227° |
| 2026-04-27 16:46 | 49.54558 | 1.55576 | 15176 ft | 271 kts | 246° |
| 2026-04-27 16:46 | 49.54049 | 1.52820 | 14879 ft | 268 kts | 266° |
| 2026-04-27 16:46 | 49.54210 | 1.50024 | 14604 ft | 267 kts | 286° |
| 2026-04-27 16:46 | 49.54992 | 1.47398 | 14323 ft | 268 kts | 302° |
| 2026-04-27 16:47 | 49.56256 | 1.45342 | 14009 ft | 271 kts | 323° |
| 2026-04-27 16:47 | 49.57843 | 1.43765 | 13737 ft | 270 kts | 325° |
| 2026-04-27 16:47 | 49.59433 | 1.42240 | 13466 ft | 269 kts | 326° |
| 2026-04-27 16:47 | 49.61037 | 1.40753 | 13183 ft | 268 kts | 326° |
| 2026-04-27 16:48 | 49.62612 | 1.39226 | 12896 ft | 267 kts | 325° |
| 2026-04-27 16:48 | 49.64209 | 1.37777 | 12614 ft | 268 kts | 336° |
| 2026-04-27 16:48 | 49.66046 | 1.37282 | 12337 ft | 271 kts | 0° |
| 2026-04-27 16:49 | 49.69523 | 1.39355 | 11777 ft | 277 kts | 40° |
| 2026-04-27 16:49 | 49.70716 | 1.41700 | 11508 ft | 279 kts | 62° |
| 2026-04-27 16:49 | 49.71247 | 1.44578 | 11207 ft | 281 kts | 86° |
| 2026-04-27 16:49 | 49.71016 | 1.47550 | 10940 ft | 281 kts | 109° |
| 2026-04-27 16:50 | 49.70107 | 1.50193 | 10711 ft | 277 kts | 129° |
| 2026-04-27 16:50 | 49.68708 | 1.52212 | 10378 ft | 277 kts | 147° |
| 2026-04-27 16:50 | 49.67084 | 1.53812 | 10144 ft | 275 kts | 150° |
| 2026-04-27 16:50 | 49.65443 | 1.55346 | 9805 ft | 277 kts | 150° |
| 2026-04-27 16:51 | 49.63798 | 1.56894 | 9526 ft | 276 kts | 149° |
| 2026-04-27 16:51 | 49.62179 | 1.58433 | 9379 ft | 270 kts | 149° |
| 2026-04-27 16:51 | 49.60708 | 1.60260 | 8881 ft | 277 kts | 123° |
| 2026-04-27 16:51 | 49.60068 | 1.63038 | 8365 ft | 280 kts | 88° |
| 2026-04-27 16:52 | 49.60432 | 1.65938 | 8142 ft | 274 kts | 72° |
| 2026-04-27 16:52 | 49.60732 | 1.68843 | 7859 ft | 275 kts | 86° |
| 2026-04-27 16:52 | 49.60731 | 1.71786 | 7612 ft | 275 kts | 91° |
| 2026-04-27 16:52 | 49.60604 | 1.74740 | 7360 ft | 276 kts | 92° |
| 2026-04-27 16:53 | 49.60160 | 1.77578 | 7118 ft | 277 kts | 118° |
| 2026-04-27 16:53 | 49.59049 | 1.79978 | 6954 ft | 272 kts | 125° |
| 2026-04-27 16:53 | 49.57978 | 1.82376 | 6669 ft | 273 kts | 122° |
| 2026-04-27 16:53 | 49.56939 | 1.84805 | 6527 ft | 267 kts | 122° |
| 2026-04-27 16:54 | 49.55940 | 1.87117 | 6369 ft | 251 kts | 123° |
| 2026-04-27 16:54 | 49.55005 | 1.89264 | 6262 ft | 232 kts | 122° |
| 2026-04-27 16:54 | 49.54149 | 1.91226 | 6240 ft | 210 kts | 122° |
| 2026-04-27 16:54 | 49.53366 | 1.93030 | 6062 ft | 197 kts | 121° |
| 2026-04-27 16:55 | 49.52633 | 1.94693 | 5967 ft | 176 kts | 126° |
| 2026-04-27 16:55 | 49.51674 | 1.95728 | 5634 ft | 170 kts | 168° |
| 2026-04-27 16:55 | 49.50550 | 1.95475 | 5198 ft | 167 kts | 213° |
| 2026-04-27 16:55 | 49.49865 | 1.94080 | 4663 ft | 165 kts | 262° |
| 2026-04-27 16:56 | 49.50042 | 1.92415 | 4206 ft | 157 kts | 309° |
| 2026-04-27 16:56 | 49.50564 | 1.91709 | 3919 ft | 150 kts | 338° |
| 2026-04-27 16:56 | 49.51571 | 1.91691 | 3461 ft | 149 kts | 27° |
| 2026-04-27 16:56 | 49.52195 | 1.92858 | 3089 ft | 147 kts | 73° |
| 2026-04-27 16:57 | 49.51768 | 1.94759 | 2730 ft | 151 kts | 124° |
| 2026-04-27 16:57 | 49.51267 | 1.96230 | 2499 ft | 156 kts | 107° |
| 2026-04-27 16:57 | 49.50985 | 1.97270 | 2330 ft | 156 kts | 112° |
| 2026-04-27 16:57 | 49.50521 | 1.98752 | 2148 ft | 156 kts | 113° |
| 2026-04-27 16:58 | 49.50009 | 2.00231 | 1883 ft | 154 kts | 114° |
| 2026-04-27 16:58 | 49.49475 | 2.01642 | 1708 ft | 154 kts | 115° |
| 2026-04-27 16:58 | 49.48913 | 2.03055 | 1487 ft | 154 kts | 117° |
| 2026-04-27 16:58 | 49.48337 | 2.04454 | 1303 ft | 155 kts | 118° |
| 2026-04-27 16:59 | 49.47740 | 2.05875 | 1104 ft | 163 kts | 119° |
| 2026-04-27 16:59 | 49.47113 | 2.07367 | 913 ft | 171 kts | 120° |
| 2026-04-27 16:59 | 49.46467 | 2.08902 | 632 ft | 167 kts | 120° |
| 2026-04-27 16:59 | 49.45838 | 2.10337 | 411 ft | 156 kts | 119° |
| 2026-04-27 17:00 | 49.45112 | 2.12065 | 362 ft | 65 kts | 131° |
| 2026-04-27 17:00 | 49.44936 | 2.12472 | 361 ft | 7 kts | 117° |
| 2026-04-27 17:00 | 49.44925 | 2.12442 | 359 ft | 8 kts | 318° |
| 2026-04-27 17:01 | 49.45006 | 2.12281 | 360 ft | 29 kts | 304° |
| 2026-04-27 17:01 | 49.45124 | 2.12008 | 366 ft | 35 kts | 303° |
| 2026-04-27 17:01 | 49.45262 | 2.11690 | 357 ft | 35 kts | 303° |
| 2026-04-27 17:01 | 49.45393 | 2.11389 | 357 ft | 33 kts | 304° |
| 2026-04-27 17:02 | 49.45510 | 2.11117 | 363 ft | 30 kts | 304° |
| 2026-04-27 17:02 | 49.45622 | 2.10879 | 355 ft | 21 kts | 329° |
| 2026-04-27 17:02 | 49.45755 | 2.10950 | 355 ft | 22 kts | 29° |
| 2026-04-27 17:02 | 49.45785 | 2.11037 | 357 ft | 4 kts | 131° |
| 2026-04-27 17:03 | 49.45788 | 2.11063 | 350 ft | 4 kts | 58° |
| 2026-04-27 17:03 | 49.45824 | 2.11100 | 350 ft | 6 kts | 33° |
| 2026-04-27 17:03 | 49.45829 | 2.11106 | 350 ft | 0 kts | 33° |